Athensville, Illinois
Current Conditions -  °F | °C
As of 7:55 PM on Monday 24 Nov 2014 (Local Time) from KIJX Reporting Station
Overcast Overcast  
Wind Chill: -3°   Ceiling: 3100
Heat Index:   Visibility: 10mi
Dew Point: -3°   Wind: 13mph
Humidity: 71%   Direction: 260°W
Pressure: 29.9"   Gusts: NA
Location:  39.491°N, 90.2996°W
Report Text: KIJX 250155Z AUTO 26011KT 10SM OVC031 02/M03 A2990 RMK AO2 T00201027
Loading
Personal Weather Stations






























Interactive Weather Map New forecast layout! Learn more

10-Day Weather Forecast

Advertisements
Track Severe Weather on mobile